Time;durP1;ratioP1;P1;durP2;ratioP2;P2;SDS_P1;SDS_P2;PMS_P1;PMS_P2;Temp;Humidity;BMP_temperature;BMP_pressure;BME280_temperature;BME280_humidity;BME280_pressure;Samples;Min_cycle;Max_cycle;Signal;HPM_P1;HPM_P2
2023/03/22 00:01:13;;;;;;;29.90;17.30;;;;;;;12.39;100.00;97846.53;5030780;28;20186;-60
2023/03/22 00:03:39;;;;;;;24.60;17.45;;;;;;;11.88;100.00;97774.88;5030685;28;20727;-60
2023/03/22 00:06:06;;;;;;;29.77;17.23;;;;;;;11.75;100.00;97779.44;5030552;28;20189;-60
2023/03/22 00:08:31;;;;;;;30.40;18.48;;;;;;;12.09;100.00;97830.91;5030636;28;20213;-60
2023/03/22 00:10:57;;;;;;;31.80;17.05;;;;;;;12.23;100.00;97837.56;5030633;28;20186;-60
2023/03/22 00:13:22;;;;;;;35.08;18.60;;;;;;;12.21;100.00;97837.69;5030509;28;20260;-60
2023/03/22 00:15:48;;;;;;;27.45;18.70;;;;;;;12.20;100.00;97832.63;5030512;28;20694;-60
2023/03/22 00:18:17;;;;;;;32.72;18.38;;;;;;;12.00;100.00;97785.03;5065356;28;20191;-60
2023/03/22 00:20:50;;;;;;;30.38;17.08;;;;;;;11.96;100.00;97762.09;5070359;28;20706;-60
2023/03/22 00:23:15;;;;;;;30.77;19.13;;;;;;;12.29;100.00;97811.09;5070354;28;20192;-60
2023/03/22 00:25:42;;;;;;;31.00;18.65;;;;;;;11.95;100.00;97770.81;5070269;28;20186;-60
2023/03/22 00:28:08;;;;;;;29.08;19.42;;;;;;;12.21;100.00;97809.16;5070275;28;20183;-60
2023/03/22 00:30:33;;;;;;;34.53;19.40;;;;;;;12.02;100.00;97782.31;5070416;28;20204;-60
2023/03/22 00:32:59;;;;;;;33.97;21.23;;;;;;;11.95;100.00;97771.63;5070121;28;20239;-60
2023/03/22 00:35:24;;;;;;;36.63;21.67;;;;;;;12.26;100.00;97830.31;5070133;28;20242;-60
2023/03/22 00:37:50;;;;;;;33.72;20.27;;;;;;;12.15;100.00;97820.06;5055661;28;20178;-60
2023/03/22 00:40:16;;;;;;;31.52;20.65;;;;;;;11.78;100.00;97766.22;5052483;28;20216;-60
2023/03/22 00:42:41;;;;;;;35.58;21.65;;;;;;;11.85;100.00;97770.75;5052403;28;20176;-60
2023/03/22 00:45:09;;;;;;;30.48;20.70;;;;;;;11.84;100.00;97776.09;5052392;28;20268;-60
2023/03/22 00:47:35;;;;;;;34.50;20.42;;;;;;;11.94;100.00;97793.31;5052327;28;20260;-60
2023/03/22 00:50:01;;;;;;;35.78;21.10;;;;;;;11.67;100.00;97750.75;5052364;28;20216;-60
2023/03/22 00:52:28;;;;;;;35.97;20.23;;;;;;;12.13;100.00;97810.78;5052219;28;20305;-60
2023/03/22 00:54:54;;;;;;;35.67;20.70;;;;;;;11.95;100.00;97781.16;5052126;28;20248;-60
2023/03/22 00:57:20;;;;;;;33.80;20.98;;;;;;;11.73;100.00;97774.38;5052245;28;20252;-59
2023/03/22 00:59:46;;;;;;;37.75;22.35;;;;;;;11.92;100.00;97815.97;5052180;28;20265;-61
2023/03/22 01:02:14;;;;;;;37.63;21.85;;;;;;;11.69;100.00;97785.13;5051801;28;20264;-60
2023/03/22 01:04:45;;;;;;;35.38;21.17;;;;;;;11.49;100.00;97771.19;5052136;28;20190;-60
2023/03/22 01:07:20;;;;;;;36.55;22.98;;;;;;;11.95;100.00;97839.03;5052130;28;20162;-60
2023/03/22 01:09:50;;;;;;;36.22;20.67;;;;;;;11.33;100.00;97746.69;5052127;28;20613;-60
2023/03/22 01:12:16;;;;;;;36.35;20.92;;;;;;;11.57;100.00;97781.75;5051997;28;20759;-60
2023/03/22 01:14:42;;;;;;;40.38;22.98;;;;;;;11.61;100.00;97813.44;5052057;28;20252;-60
2023/03/22 01:17:08;;;;;;;35.90;21.65;;;;;;;11.46;100.00;97780.97;5029703;28;20281;-60
2023/03/22 01:19:35;;;;;;;35.88;20.77;;;;;;;11.29;100.00;97771.19;5029705;28;20182;-60
2023/03/22 01:22:01;;;;;;;38.45;21.58;;;;;;;11.50;100.00;97813.47;5029713;28;20190;-60
2023/03/22 01:24:27;;;;;;;36.92;22.10;;;;;;;11.38;100.00;97794.56;5029710;28;20190;-60
2023/03/22 01:26:52;;;;;;;33.50;21.42;;;;;;;11.51;100.00;97807.34;5029677;28;20583;-60
2023/03/22 01:29:17;;;;;;;35.78;21.50;;;;;;;11.55;100.00;97803.56;5029695;28;20186;-60
2023/03/22 01:31:43;;;;;;;32.00;20.80;;;;;;;11.59;100.00;97821.34;5009946;28;20206;-60
2023/03/22 01:34:09;;;;;;;35.08;21.25;;;;;;;11.09;100.00;97725.38;5009697;28;20219;-60
2023/03/22 01:36:37;;;;;;;35.70;20.25;;;;;;;11.03;100.00;97728.47;5009773;28;20278;-60
2023/03/22 01:39:03;;;;;;;37.40;20.88;;;;;;;11.41;100.00;97814.22;5009815;28;20257;-60
2023/03/22 01:41:29;;;;;;;32.67;20.80;;;;;;;11.21;100.00;97773.56;5009721;28;20187;-60
2023/03/22 01:44:11;;;;;;;39.03;21.60;;;;;;;11.20;100.00;97787.47;5009719;28;20195;-60
2023/03/22 01:46:36;;;;;;;32.60;21.13;;;;;;;10.82;100.00;97725.00;5009797;28;20282;-59
2023/03/22 01:49:05;;;;;;;35.75;19.70;;;;;;;11.35;100.00;97828.50;5044775;28;20272;-59
2023/03/22 01:51:31;;;;;;;34.22;20.65;;;;;;;11.04;100.00;97771.53;5049286;28;20190;-60
2023/03/22 01:54:01;;;;;;;34.28;21.63;;;;;;;11.30;100.00;97829.78;5049318;28;20265;-60
2023/03/22 01:56:32;;;;;;;39.67;22.45;;;;;;;11.02;100.00;97788.94;5049172;28;20236;-60
2023/03/22 01:58:58;;;;;;;36.08;21.50;;;;;;;11.18;100.00;97829.03;5049298;28;20194;-60
2023/03/22 02:01:24;;;;;;;36.00;21.75;;;;;;;11.10;100.00;97821.03;5049247;28;20566;-60
2023/03/22 02:04:06;;;;;;;42.63;21.65;;;;;;;11.06;100.00;97831.75;5049123;28;20198;-60
2023/03/22 02:06:36;;;;;;;41.13;22.90;;;;;;;10.95;100.00;97819.66;5051654;28;20664;-61
2023/03/22 02:09:08;;;;;;;44.10;24.10;;;;;;;10.55;100.00;97746.13;5051575;28;20269;-60
2023/03/22 02:11:37;;;;;;;39.80;24.17;;;;;;;11.11;100.00;97827.03;5051565;28;20166;-59
2023/03/22 02:14:40;;;;;;;38.08;22.50;;;;;;;11.07;100.00;97833.41;5052616;28;20206;-60
2023/03/22 02:17:27;;;;;;;43.88;22.73;;;;;;;10.91;100.00;97817.47;5055164;28;20162;-60
2023/03/22 02:20:10;;;;;;;43.05;24.77;;;;;;;10.79;100.00;97824.41;5055368;28;20166;-60
2023/03/22 02:22:52;;;;;;;35.45;22.70;;;;;;;10.94;100.00;97823.22;5055007;28;20233;-60
2023/03/22 02:25:17;;;;;;;36.67;21.85;;;;;;;11.03;100.00;97832.81;5055026;28;20260;-61
2023/03/22 02:28:06;;;;;;;38.58;22.00;;;;;;;10.92;100.00;97822.50;5054957;28;20336;-60
2023/03/22 02:30:56;;;;;;;37.33;21.80;;;;;;;11.06;100.00;97826.56;5054980;28;20242;-60
2023/03/22 02:33:52;;;;;;;37.50;21.85;;;;;;;11.04;100.00;97823.28;5052242;28;20658;-60
2023/03/22 02:36:54;;;;;;;34.40;21.80;;;;;;;11.08;100.00;97827.28;5072118;28;20683;-61
2023/03/22 02:39:49;;;;;;;37.58;20.80;;;;;;;10.53;100.00;97734.28;5072324;28;20177;-61
2023/03/22 02:42:48;;;;;;;32.35;20.50;;;;;;;11.03;100.00;97827.63;5012522;28;20202;-61
2023/03/22 02:45:40;;;;;;;33.65;20.98;;;;;;;10.85;100.00;97802.41;5012587;28;20408;-61
2023/03/22 02:48:15;;;;;;;34.05;19.92;;;;;;;10.91;100.00;97807.91;4970700;28;20200;-61
2023/03/22 02:50:46;;;;;;;39.50;22.35;;;;;;;10.98;100.00;97836.72;4973403;28;20246;-61
2023/03/22 02:53:19;;;;;;;31.98;21.10;;;;;;;10.88;100.00;97839.22;4973359;28;20773;-61
2023/03/22 02:55:53;;;;;;;37.80;21.52;;;;;;;10.75;100.00;97833.34;4973223;28;20204;-60
2023/03/22 02:58:25;;;;;;;40.85;21.90;;;;;;;10.15;100.00;97741.63;4973237;28;20586;-60
2023/03/22 03:00:58;;;;;;;39.78;22.50;;;;;;;10.19;100.00;97761.09;4973169;28;20200;-60
2023/03/22 03:03:28;;;;;;;36.17;22.55;;;;;;;10.08;100.00;97748.19;4973074;28;20200;-60
2023/03/22 03:06:02;;;;;;;37.05;21.65;;;;;;;10.20;100.00;97768.75;4973139;28;20216;-61
2023/03/22 03:08:29;;;;;;;32.75;20.27;;;;;;;10.28;100.00;97789.66;4954181;28;20579;-61
2023/03/22 03:10:55;;;;;;;36.17;21.55;;;;;;;10.42;100.00;97811.88;4953749;29;20192;-60
2023/03/22 03:13:21;;;;;;;33.97;21.38;;;;;;;10.51;100.00;97835.25;4953552;29;20213;-60
2023/03/22 03:15:58;;;;;;;42.05;22.95;;;;;;;9.89;100.00;97740.19;4953686;29;20260;-60
2023/03/22 03:18:44;;;;;;;34.65;20.98;;;;;;;10.56;100.00;97832.34;4961327;28;20271;-60
2023/03/22 03:21:41;;;;;;;33.58;21.33;;;;;;;10.66;100.00;97843.59;5031550;28;20212;-60
2023/03/22 03:24:26;;;;;;;33.90;20.13;;;;;;;10.77;100.00;97843.59;5031521;28;20182;-61
2023/03/22 03:27:03;;;;;;;37.83;20.65;;;;;;;10.70;100.00;97845.84;5031584;28;20171;-61
2023/03/22 03:29:44;;;;;;;31.60;20.52;;;;;;;10.70;100.00;97845.00;5031356;28;20204;-60
2023/03/22 03:32:40;;;;;;;37.03;21.58;;;;;;;10.86;100.00;97843.69;5031308;28;20205;-60
2023/03/22 03:35:21;;;;;;;36.53;21.73;;;;;;;10.76;100.00;97829.00;5062703;28;20181;-60
2023/03/22 03:38:01;;;;;;;44.90;22.00;;;;;;;10.71;100.00;97837.13;5071226;28;20222;-60
2023/03/22 03:40:32;;;;;;;39.25;21.23;;;;;;;10.91;100.00;97851.91;5071246;28;20207;-60
2023/03/22 03:43:02;;;;;;;36.80;21.45;;;;;;;10.99;100.00;97848.72;5071066;28;20177;-60
2023/03/22 03:45:29;;;;;;;34.22;20.80;;;;;;;10.90;100.00;97836.50;5070984;28;20637;-61
2023/03/22 03:48:03;;;;;;;36.47;21.55;;;;;;;10.68;100.00;97785.59;5070983;28;20192;-60
2023/03/22 03:50:29;;;;;;;32.05;22.00;;;;;;;10.64;100.00;97773.06;5070953;28;20217;-61
2023/03/22 03:52:55;;;;;;;37.38;21.77;;;;;;;10.94;100.00;97796.50;5070776;28;20204;-61
2023/03/22 03:55:22;;;;;;;28.52;19.77;;;;;;;11.14;100.00;97819.84;5070603;28;20227;-61
2023/03/22 03:57:48;;;;;;;37.35;19.92;;;;;;;10.92;100.00;97777.69;5071081;28;20181;-61
2023/03/22 04:00:14;;;;;;;31.95;19.85;;;;;;;11.09;100.00;97810.81;5063854;28;20579;-61
2023/03/22 04:02:40;;;;;;;33.72;21.65;;;;;;;11.43;100.00;97861.56;5053107;28;20185;-61
2023/03/22 04:05:07;;;;;;;32.97;21.05;;;;;;;11.41;100.00;97869.44;5053120;28;20185;-61
2023/03/22 04:07:33;;;;;;;35.08;22.33;;;;;;;10.96;100.00;97799.78;5052772;28;20173;-61
2023/03/22 04:09:58;;;;;;;35.05;21.08;;;;;;;11.30;100.00;97855.69;5052977;28;20279;-61
2023/03/22 04:12:24;;;;;;;32.30;21.90;;;;;;;10.94;100.00;97796.50;5052875;28;20229;-61
2023/03/22 04:14:49;;;;;;;36.05;21.25;;;;;;;10.84;100.00;97805.91;5052916;28;20178;-61
2023/03/22 04:17:15;;;;;;;33.10;20.95;;;;;;;11.32;100.00;97875.34;5052874;28;20261;-61
2023/03/22 04:19:41;;;;;;;37.67;20.42;;;;;;;11.12;100.00;97836.44;5052805;28;20177;-61
2023/03/22 04:22:13;;;;;;;36.47;21.95;;;;;;;11.02;100.00;97838.94;5052755;28;20201;-61
2023/03/22 04:24:43;;;;;;;33.13;21.98;;;;;;;11.28;100.00;97893.84;5052864;28;20621;-60
2023/03/22 04:27:08;;;;;;;39.42;22.55;;;;;;;10.94;100.00;97843.09;5052687;28;20178;-61
2023/03/22 04:29:35;;;;;;;37.60;23.27;;;;;;;11.05;100.00;97866.34;5052371;28;20204;-61
2023/03/22 04:32:01;;;;;;;38.30;23.40;;;;;;;10.50;100.00;97799.19;5052493;28;20201;-61
2023/03/22 04:34:26;;;;;;;38.80;22.75;;;;;;;10.44;100.00;97802.25;5052563;28;20252;-61
2023/03/22 04:36:53;;;;;;;40.33;23.40;;;;;;;10.44;100.00;97802.25;5051667;28;20266;-60
2023/03/22 04:39:19;;;;;;;42.13;23.92;;;;;;;10.56;100.00;97809.84;5052504;28;20184;-60
2023/03/22 04:41:44;;;;;;;40.42;23.35;;;;;;;10.73;100.00;97824.09;5052487;28;20268;-61
2023/03/22 04:44:09;;;;;;;40.88;24.00;;;;;;;10.72;100.00;97801.72;5052447;28;20284;-61
2023/03/22 04:46:36;;;;;;;41.13;22.92;;;;;;;11.23;100.00;97893.38;5052381;28;20204;-61
2023/03/22 04:49:02;;;;;;;41.45;23.65;;;;;;;10.69;100.00;97812.31;5052139;28;20526;-60
2023/03/22 04:51:29;;;;;;;41.58;24.10;;;;;;;11.06;100.00;97868.00;5052343;28;20185;-60
2023/03/22 04:53:54;;;;;;;38.75;23.95;;;;;;;10.50;100.00;97794.81;5052173;28;20579;-60
2023/03/22 04:56:20;;;;;;;41.40;23.52;;;;;;;10.56;100.00;97806.47;5052323;28;20181;-60
2023/03/22 04:58:46;;;;;;;39.65;23.27;;;;;;;10.90;100.00;97864.97;5052204;28;20568;-60
2023/03/22 05:01:14;;;;;;;41.47;24.23;;;;;;;10.91;100.00;97879.56;5052225;28;20169;-61
2023/03/22 05:03:41;;;;;;;40.15;24.95;;;;;;;10.80;100.00;97874.41;5052200;28;20185;-60
2023/03/22 05:06:08;;;;;;;47.85;25.20;;;;;;;10.49;100.00;97882.88;5051799;28;20682;-60
2023/03/22 05:08:34;;;;;;;43.50;25.85;;;;;;;10.10;100.00;97818.69;5052116;28;20184;-60
2023/03/22 05:11:09;;;;;;;44.10;27.17;;;;;;;10.51;100.00;97897.31;5052052;28;20251;-60
2023/03/22 05:13:36;;;;;;;48.35;29.17;;;;;;;10.09;100.00;97840.31;5051625;28;20645;-60
2023/03/22 05:16:03;;;;;;;41.20;26.33;;;;;;;10.63;100.00;97905.94;5051937;28;20178;-60
2023/03/22 05:18:29;;;;;;;39.25;24.63;;;;;;;10.43;100.00;97863.47;5051926;28;20600;-60
2023/03/22 05:20:55;;;;;;;39.47;25.27;;;;;;;10.44;100.00;97869.50;5051884;28;20273;-60
2023/03/22 05:23:22;;;;;;;37.47;24.02;;;;;;;10.86;100.00;97923.09;5051914;28;20555;-60
2023/03/22 05:25:49;;;;;;;40.17;24.83;;;;;;;10.60;100.00;97862.19;5051888;28;20174;-60
2023/03/22 05:28:18;;;;;;;48.60;25.17;;;;;;;10.62;100.00;97868.06;5051882;28;20191;-60
2023/03/22 05:30:44;;;;;;;38.72;24.90;;;;;;;10.70;100.00;97881.22;5051850;28;20253;-60
2023/03/22 05:33:10;;;;;;;41.95;23.38;;;;;;;10.51;100.00;97870.66;5051733;28;20201;-60
2023/03/22 05:35:37;;;;;;;38.88;24.45;;;;;;;10.59;100.00;97883.81;5051726;28;20174;-60
2023/03/22 05:38:04;;;;;;;44.75;25.95;;;;;;;10.47;100.00;97864.06;5051766;28;20240;-60
2023/03/22 05:40:29;;;;;;;48.30;27.40;;;;;;;10.46;100.00;97880.53;5051419;28;20177;-60
2023/03/22 05:42:55;;;;;;;43.17;26.20;;;;;;;10.65;100.00;97950.59;5051746;28;20181;-60
2023/03/22 05:45:21;;;;;;;44.58;26.95;;;;;;;10.14;100.00;97871.78;5051677;28;20177;-60
2023/03/22 05:47:48;;;;;;;46.38;28.23;;;;;;;10.47;100.00;97962.34;5052379;28;20213;-60
2023/03/22 05:50:16;;;;;;;50.92;28.38;;;;;;;10.39;100.00;97944.00;5055566;28;20181;-60
2023/03/22 05:52:43;;;;;;;49.60;27.65;;;;;;;10.47;100.00;97958.00;5055441;28;20703;-60
2023/03/22 05:55:11;;;;;;;45.03;27.10;;;;;;;10.59;100.00;97987.28;5055290;28;20623;-60
2023/03/22 05:57:37;;;;;;;42.28;25.88;;;;;;;10.71;100.00;97988.94;5055488;28;20171;-61
2023/03/22 06:00:05;;;;;;;42.92;26.73;;;;;;;10.24;100.00;97908.94;5055643;28;20174;-60
2023/03/22 06:02:31;;;;;;;42.67;25.98;;;;;;;10.48;100.00;97928.63;5055334;28;20217;-60
2023/03/22 06:04:56;;;;;;;42.75;26.02;;;;;;;10.94;100.00;98003.56;5055251;28;20281;-60
2023/03/22 06:07:21;;;;;;;38.17;25.45;;;;;;;10.84;100.00;97984.47;5055266;28;20288;-60
2023/03/22 06:09:48;;;;;;;37.55;24.25;;;;;;;10.75;100.00;97973.06;5055456;28;20178;-60
2023/03/22 06:12:15;;;;;;;44.08;26.38;;;;;;;10.24;100.00;97924.47;5055061;28;20206;-60
2023/03/22 06:14:41;;;;;;;36.45;23.58;;;;;;;10.82;100.00;97989.81;5055122;28;20174;-59
2023/03/22 06:17:08;;;;;;;37.53;23.48;;;;;;;10.63;100.00;97934.38;5055143;28;20231;-60
2023/03/22 06:19:33;;;;;;;32.83;20.70;;;;;;;10.60;100.00;97938.03;5055099;28;20166;-59
2023/03/22 06:21:59;;;;;;;36.72;22.02;;;;;;;10.96;100.00;98009.44;5055059;28;20184;-59
2023/03/22 06:24:24;;;;;;;34.40;20.67;;;;;;;10.74;100.00;97986.94;5055026;28;20185;-59
2023/03/22 06:26:50;;;;;;;35.33;22.80;;;;;;;10.43;100.00;97935.06;5054937;28;20181;-60
2023/03/22 06:29:15;;;;;;;38.05;23.38;;;;;;;10.99;100.00;98012.63;5054888;28;20180;-60
2023/03/22 06:31:41;;;;;;;36.38;23.20;;;;;;;10.77;100.00;97971.22;5054490;28;20239;-60
2023/03/22 06:34:06;;;;;;;35.83;22.98;;;;;;;11.06;100.00;98012.97;5055065;28;20178;-60
2023/03/22 06:36:32;;;;;;;36.00;23.38;;;;;;;10.91;100.00;98014.97;5054489;28;20264;-60
2023/03/22 06:38:59;;;;;;;40.15;25.52;;;;;;;10.44;100.00;97929.78;5054520;28;20228;-60
2023/03/22 06:41:25;;;;;;;37.13;21.75;;;;;;;10.62;100.00;97940.50;5054682;28;20182;-60
2023/03/22 06:43:50;;;;;;;33.67;23.13;;;;;;;11.03;100.00;98029.56;5054639;28;20258;-60
2023/03/22 06:46:16;;;;;;;41.38;25.40;;;;;;;10.42;100.00;97944.59;5054572;28;20189;-60
2023/03/22 06:48:41;;;;;;;36.25;23.33;;;;;;;10.83;100.00;98017.31;5054446;28;20178;-61
2023/03/22 06:51:07;;;;;;;37.53;22.73;;;;;;;10.65;100.00;97986.81;5054515;28;20174;-61
2023/03/22 06:53:33;;;;;;;33.17;21.75;;;;;;;10.48;100.00;97964.00;5054441;28;20193;-61
2023/03/22 06:55:58;;;;;;;36.53;21.55;;;;;;;10.90;100.00;98028.00;5054674;28;20656;-61
2023/03/22 06:58:24;;;;;;;34.78;21.45;;;;;;;10.61;100.00;98017.28;5054280;28;20547;-61
2023/03/22 07:00:49;;;;;;;38.78;23.50;;;;;;;10.40;100.00;97990.41;5053693;28;20714;-61
2023/03/22 07:03:14;;;;;;;38.88;25.75;;;;;;;10.39;100.00;97981.00;5054286;28;20178;-61
2023/03/22 07:05:40;;;;;;;38.20;23.77;;;;;;;10.43;100.00;97973.84;5054269;28;20525;-61
2023/03/22 07:08:05;;;;;;;40.38;23.77;;;;;;;10.76;100.00;98036.00;5054028;28;20170;-61
2023/03/22 07:10:31;;;;;;;39.47;24.42;;;;;;;10.41;100.00;98015.38;5053449;28;20242;-61
2023/03/22 07:12:57;;;;;;;44.88;24.42;;;;;;;10.52;100.00;98007.59;5053811;28;20198;-61
2023/03/22 07:15:23;;;;;;;36.38;22.05;;;;;;;10.26;100.00;97923.41;5053833;28;20205;-61
2023/03/22 07:17:50;;;;;;;30.58;16.77;;;;;;;10.53;100.00;97965.31;5053625;28;20640;-61
2023/03/22 07:20:16;;;;;;;20.60;13.55;;;;;;;10.51;100.00;97941.31;5053716;28;20217;-61
2023/03/22 07:22:42;;;;;;;23.27;16.52;;;;;;;10.32;100.00;97911.75;5053925;28;20245;-61
2023/03/22 07:25:07;;;;;;;24.75;16.77;;;;;;;10.61;100.00;97955.19;5053491;28;20262;-61
2023/03/22 07:27:33;;;;;;;24.20;16.52;;;;;;;10.61;100.00;97938.84;5053893;28;20546;-61
2023/03/22 07:29:58;;;;;;;21.77;14.95;;;;;;;10.86;100.00;97996.38;5053497;28;20269;-61
2023/03/22 07:32:24;;;;;;;22.42;15.07;;;;;;;10.62;100.00;97971.56;5053794;28;20427;-61
2023/03/22 07:34:49;;;;;;;20.80;14.25;;;;;;;10.34;100.00;97926.22;5052743;28;20177;-61
2023/03/22 07:37:14;;;;;;;19.42;14.70;;;;;;;10.39;100.00;97938.84;5053396;28;20173;-61
2023/03/22 07:39:40;;;;;;;21.38;16.27;;;;;;;10.88;100.00;98029.91;5053474;28;20234;-61
2023/03/22 07:42:05;;;;;;;20.95;15.52;;;;;;;10.77;100.00;97996.25;5053536;28;20230;-61
2023/03/22 07:44:31;;;;;;;25.95;17.85;;;;;;;11.03;100.00;98036.53;5053452;28;20200;-61
2023/03/22 07:46:56;;;;;;;17.50;13.82;;;;;;;11.19;100.00;98036.97;5053435;28;20174;-60
2023/03/22 07:49:21;;;;;;;16.02;11.98;;;;;;;10.85;100.00;97976.63;5053391;28;20169;-61
2023/03/22 07:51:47;;;;;;;26.90;17.40;;;;;;;11.19;100.00;98024.88;5053052;28;20177;-60
2023/03/22 07:54:12;;;;;;;27.80;17.55;;;;;;;11.30;100.00;98045.59;5053323;28;20269;-60
2023/03/22 07:56:38;;;;;;;26.05;17.67;;;;;;;11.22;100.00;98039.34;5053383;28;20186;-60
2023/03/22 07:59:05;;;;;;;26.05;19.10;;;;;;;11.24;100.00;98052.97;5053265;28;20177;-61
2023/03/22 08:01:31;;;;;;;28.85;21.38;;;;;;;11.19;100.00;98073.22;5053011;28;20265;-61
2023/03/22 08:03:56;;;;;;;35.55;22.35;;;;;;;10.99;100.00;98054.06;5052954;28;20264;-61
2023/03/22 08:06:21;;;;;;;34.03;22.35;;;;;;;10.88;100.00;98050.63;5052875;28;20189;-61
2023/03/22 08:08:47;;;;;;;38.17;23.92;;;;;;;11.13;100.00;98074.53;5052843;28;20239;-61
2023/03/22 08:11:12;;;;;;;40.05;24.08;;;;;;;10.54;100.00;97991.97;5051936;28;20543;-61
2023/03/22 08:13:38;;;;;;;38.47;25.20;;;;;;;10.89;100.00;98050.50;5052793;28;20284;-61
2023/03/22 08:16:04;;;;;;;42.17;27.48;;;;;;;11.18;100.00;98084.53;5052641;28;20260;-61
2023/03/22 08:18:30;;;;;;;40.60;28.33;;;;;;;11.04;100.00;98066.63;5051741;28;20239;-61
2023/03/22 08:20:57;;;;;;;36.75;26.40;;;;;;;11.00;100.00;98049.69;5052789;28;20181;-61
2023/03/22 08:23:24;;;;;;;41.15;28.25;;;;;;;11.01;100.00;98051.31;5052711;28;20231;-61
2023/03/22 08:25:50;;;;;;;43.50;28.73;;;;;;;11.14;100.00;98077.97;5052724;28;20200;-61
2023/03/22 08:28:16;;;;;;;38.22;28.38;;;;;;;11.14;100.00;98085.72;5051765;28;20731;-61
2023/03/22 08:30:43;;;;;;;38.78;28.42;;;;;;;10.98;100.00;98064.50;5052683;28;20178;-61
2023/03/22 08:33:08;;;;;;;38.97;28.08;;;;;;;11.08;100.00;98068.06;5052500;28;20671;-61
2023/03/22 08:35:34;;;;;;;42.50;27.73;;;;;;;11.01;100.00;98031.44;5052252;28;20242;-61
2023/03/22 08:38:00;;;;;;;39.97;28.27;;;;;;;11.11;100.00;98047.09;5052182;28;20252;-61
2023/03/22 08:40:25;;;;;;;40.95;28.92;;;;;;;11.15;100.00;98064.06;5052410;28;20276;-61
2023/03/22 08:42:51;;;;;;;39.92;28.92;;;;;;;10.77;100.00;98006.59;5052354;28;20178;-61
2023/03/22 08:45:16;;;;;;;42.17;29.30;;;;;;;10.85;100.00;98015.44;5052296;28;20671;-61
2023/03/22 08:47:43;;;;;;;40.10;29.90;;;;;;;10.98;100.00;98017.94;5052523;28;20178;-61
2023/03/22 08:50:10;;;;;;;39.50;29.65;;;;;;;11.44;100.00;98073.81;5052351;28;20182;-61
2023/03/22 08:52:35;;;;;;;42.15;28.13;;;;;;;11.13;100.00;98006.38;5052217;28;20197;-61
2023/03/22 08:55:01;;;;;;;41.53;28.52;;;;;;;11.53;100.00;98070.53;5051977;28;20206;-61
2023/03/22 08:57:28;;;;;;;43.47;29.50;;;;;;;11.47;100.00;98067.59;5052288;28;20570;-61
2023/03/22 08:59:56;;;;;;;46.92;30.50;;;;;;;11.26;100.00;98005.31;5052145;28;20683;-61
2023/03/22 09:02:22;;;;;;;42.47;30.67;;;;;;;11.46;100.00;98021.91;5052163;28;20170;-61
2023/03/22 09:04:47;;;;;;;39.63;27.77;;;;;;;11.98;100.00;98097.22;5052234;28;20201;-61
2023/03/22 09:07:13;;;;;;;38.60;26.77;;;;;;;11.96;100.00;98088.75;5052143;28;20311;-61
2023/03/22 09:09:38;;;;;;;37.90;25.52;;;;;;;11.47;100.00;98018.34;5051845;28;20169;-61
2023/03/22 09:12:04;;;;;;;35.75;25.20;;;;;;;11.61;100.00;98026.72;5052011;28;20178;-61
2023/03/22 09:14:30;;;;;;;39.15;25.52;;;;;;;11.64;100.00;98015.31;5052101;28;20181;-61
2023/03/22 09:16:55;;;;;;;36.58;24.83;;;;;;;11.73;100.00;98015.38;5052361;28;20551;-61
2023/03/22 09:19:21;;;;;;;41.17;27.25;;;;;;;11.67;100.00;98017.66;5052013;28;20177;-61
2023/03/22 09:21:46;;;;;;;35.95;24.42;;;;;;;12.08;100.00;98082.59;5051986;28;20255;-61
2023/03/22 09:24:12;;;;;;;33.30;23.38;;;;;;;11.94;100.00;98039.63;5055201;28;20181;-61
2023/03/22 09:26:37;;;;;;;43.65;25.83;;;;;;;12.08;100.00;98077.41;5056073;28;20261;-61
2023/03/22 09:29:03;;;;;;;39.00;24.90;;;;;;;12.15;100.00;98084.59;5056047;28;20253;-61
2023/03/22 09:31:28;;;;;;;36.08;23.55;;;;;;;11.66;100.00;98003.03;5055737;28;20174;-61
2023/03/22 09:33:53;;;;;;;33.25;22.90;;;;;;;12.18;100.00;98067.94;5055880;28;20574;-61
2023/03/22 09:36:20;;;;;;;37.95;26.70;;;;;;;11.98;100.00;98035.00;5055551;28;20174;-61
2023/03/22 09:38:48;;;;;;;37.95;25.33;;;;;;;11.98;100.00;98009.09;5055878;28;20177;-61
2023/03/22 09:41:37;;;;;;;36.83;25.90;;;;;;;12.13;100.00;98016.44;5055891;28;20228;-61
2023/03/22 09:44:09;;;;;;;41.50;29.27;;;;;;;12.12;100.00;98078.81;5055840;28;20525;-61
2023/03/22 09:46:40;;;;;;;42.38;28.38;;;;;;;11.62;100.00;98007.63;5055789;28;20168;-61
2023/03/22 09:49:15;;;;;;;40.45;28.80;;;;;;;12.17;100.00;98092.22;5055421;28;20644;-61
2023/03/22 09:51:44;;;;;;;40.58;27.60;;;;;;;11.92;100.00;98067.44;5055691;28;20239;-61
2023/03/22 09:54:40;;;;;;;36.17;25.23;;;;;;;11.77;100.00;98058.28;5055510;28;20255;-61
2023/03/22 09:57:23;;;;;;;35.33;25.92;;;;;;;12.06;100.00;98094.84;5055346;28;20205;-61
2023/03/22 10:00:11;;;;;;;36.15;25.63;;;;;;;12.10;100.00;98091.06;5055236;28;20184;-61
2023/03/22 10:02:49;;;;;;;33.83;23.95;;;;;;;12.32;100.00;98088.41;5055442;28;20169;-61
2023/03/22 10:05:24;;;;;;;33.15;24.00;;;;;;;12.50;100.00;98085.16;5055332;28;20190;-61
2023/03/22 10:08:21;;;;;;;31.33;23.25;;;;;;;12.73;100.00;98096.25;5055339;28;20199;-61
2023/03/22 10:10:46;;;;;;;35.92;25.23;;;;;;;12.55;100.00;98038.06;5055367;28;20173;-61
2023/03/22 10:13:26;;;;;;;37.45;24.35;;;;;;;12.54;100.00;98010.47;5055176;28;20745;-61
2023/03/22 10:15:58;;;;;;;31.80;23.88;;;;;;;12.85;100.00;98028.56;5055270;28;20177;-61
2023/03/22 10:18:28;;;;;;;32.08;22.65;;;;;;;13.13;100.00;98063.47;5055189;28;20162;-61
2023/03/22 10:21:16;;;;;;;29.05;22.13;;;;;;;13.39;100.00;98078.50;5052937;28;20639;-61
2023/03/22 10:23:50;;;;;;;30.52;22.73;;;;;;;13.47;100.00;98089.06;5052687;28;20265;-61
2023/03/22 10:26:18;;;;;;;29.45;22.88;;;;;;;13.65;100.00;98082.28;5052916;28;20197;-61
2023/03/22 10:28:49;;;;;;;29.38;22.85;;;;;;;13.39;100.00;98038.69;5052324;28;20186;-61
2023/03/22 10:31:20;;;;;;;30.85;22.67;;;;;;;13.68;100.00;98065.59;5051669;28;20194;-61
2023/03/22 10:34:06;;;;;;;29.92;23.08;;;;;;;13.94;100.00;98082.38;5051613;28;20220;-61
2023/03/22 10:36:35;;;;;;;28.90;22.83;;;;;;;13.89;100.00;98074.16;5012396;28;20187;-61
2023/03/22 10:39:37;;;;;;;32.45;23.23;;;;;;;14.03;100.00;98071.16;5012625;28;20188;-61
2023/03/22 10:42:10;;;;;;;30.02;23.55;;;;;;;13.60;100.00;97995.25;4992822;28;20233;-61
2023/03/22 10:44:54;;;;;;;30.70;23.60;;;;;;;13.85;100.00;98065.78;4992839;28;20184;-61
2023/03/22 10:47:32;;;;;;;31.48;23.98;;;;;;;13.77;100.00;98072.63;4993023;28;20681;-61
2023/03/22 10:50:02;;;;;;;36.08;25.58;;;;;;;13.31;100.00;97984.75;4992956;28;20171;-60
2023/03/22 10:52:27;;;;;;;36.50;26.88;;;;;;;13.65;100.00;98055.47;4992716;28;20211;-61
2023/03/22 10:54:54;;;;;;;34.97;23.95;;;;;;;13.50;100.00;98030.78;4992585;28;20683;-61
2023/03/22 10:57:20;;;;;;;34.20;24.40;;;;;;;13.59;100.00;98030.00;4990894;28;20191;-61
2023/03/22 10:59:48;;;;;;;34.80;25.05;;;;;;;14.02;100.00;98066.91;4972987;28;20176;-61
2023/03/22 11:02:28;;;;;;;33.97;25.60;;;;;;;13.96;100.00;98028.44;4982881;28;20214;-61
2023/03/22 11:05:02;;;;;;;37.17;25.92;;;;;;;13.89;100.00;97991.72;4992708;28;20192;-60
2023/03/22 11:07:41;;;;;;;35.80;26.73;;;;;;;14.15;100.00;98012.81;5011338;28;20195;-61
2023/03/22 11:10:07;;;;;;;35.15;25.27;;;;;;;14.49;100.00;98073.97;5031735;28;20224;-61
2023/03/22 11:12:33;;;;;;;34.15;24.80;;;;;;;14.02;100.00;97979.28;5042041;28;20209;-61
2023/03/22 11:14:59;;;;;;;36.40;24.15;;;;;;;14.50;100.00;98057.38;5071724;28;20659;-61
2023/03/22 11:17:24;;;;;;;36.50;24.88;;;;;;;14.13;100.00;97973.13;5071660;28;20188;-60
2023/03/22 11:20:05;;;;;;;36.70;25.42;;;;;;;14.16;100.00;97983.25;5071599;28;20224;-61